sensor_id;sensor_type;location;lat;lon;timestamp;P1;durP1;ratioP1;P2;durP2;ratioP2
35394;SDS011;21500;45.308;9.488;2023-06-22T00:52:53;9.07;;;5.60;;
35394;SDS011;21500;45.308;9.488;2023-06-22T00:55:45;10.13;;;6.35;;
35394;SDS011;21500;45.308;9.488;2023-06-22T00:58:21;11.38;;;7.30;;
35394;SDS011;21500;45.308;9.488;2023-06-22T01:00:53;7.90;;;6.70;;
35394;SDS011;21500;45.308;9.488;2023-06-22T01:03:20;15.45;;;7.57;;
35394;SDS011;21500;45.308;9.488;2023-06-22T01:05:46;10.77;;;7.50;;
35394;SDS011;21500;45.308;9.488;2023-06-22T01:19:44;7.93;;;6.80;;
35394;SDS011;21500;45.308;9.488;2023-06-22T01:22:48;14.10;;;7.18;;
35394;SDS011;21500;45.308;9.488;2023-06-22T01:25:28;11.30;;;6.97;;
35394;SDS011;21500;45.308;9.488;2023-06-22T01:28:11;8.77;;;7.13;;
35394;SDS011;21500;45.308;9.488;2023-06-22T01:31:00;10.90;;;7.72;;
35394;SDS011;21500;45.308;9.488;2023-06-22T01:33:41;10.65;;;7.43;;
35394;SDS011;21500;45.308;9.488;2023-06-22T01:36:37;13.73;;;7.57;;
35394;SDS011;21500;45.308;9.488;2023-06-22T01:39:08;11.10;;;7.13;;
35394;SDS011;21500;45.308;9.488;2023-06-22T01:41:42;10.77;;;7.07;;
35394;SDS011;21500;45.308;9.488;2023-06-22T01:44:14;11.52;;;6.88;;
35394;SDS011;21500;45.308;9.488;2023-06-22T01:46:49;13.35;;;7.60;;
35394;SDS011;21500;45.308;9.488;2023-06-22T01:49:19;12.75;;;8.43;;
35394;SDS011;21500;45.308;9.488;2023-06-22T02:10:04;11.93;;;10.45;;
35394;SDS011;21500;45.308;9.488;2023-06-22T02:12:40;13.07;;;10.43;;
35394;SDS011;21500;45.308;9.488;2023-06-22T02:15:23;15.07;;;9.70;;
35394;SDS011;21500;45.308;9.488;2023-06-22T02:20:49;16.85;;;10.05;;
35394;SDS011;21500;45.308;9.488;2023-06-22T02:23:37;14.63;;;10.05;;
35394;SDS011;21500;45.308;9.488;2023-06-22T02:26:07;12.52;;;9.90;;
35394;SDS011;21500;45.308;9.488;2023-06-22T02:28:39;12.55;;;10.25;;
35394;SDS011;21500;45.308;9.488;2023-06-22T02:31:08;12.43;;;10.40;;
35394;SDS011;21500;45.308;9.488;2023-06-22T02:33:47;16.73;;;10.90;;
35394;SDS011;21500;45.308;9.488;2023-06-22T02:36:21;12.35;;;10.98;;
35394;SDS011;21500;45.308;9.488;2023-06-22T02:38:52;13.88;;;10.57;;
35394;SDS011;21500;45.308;9.488;2023-06-22T02:41:26;14.32;;;11.15;;
35394;SDS011;21500;45.308;9.488;2023-06-22T02:43:55;14.93;;;10.55;;
35394;SDS011;21500;45.308;9.488;2023-06-22T02:46:30;13.23;;;10.55;;
35394;SDS011;21500;45.308;9.488;2023-06-22T02:49:10;21.58;;;12.32;;
35394;SDS011;21500;45.308;9.488;2023-06-22T02:51:54;16.73;;;10.82;;
35394;SDS011;21500;45.308;9.488;2023-06-22T02:54:28;16.17;;;10.50;;
35394;SDS011;21500;45.308;9.488;2023-06-22T02:56:56;13.27;;;10.57;;
35394;SDS011;21500;45.308;9.488;2023-06-22T02:59:23;11.60;;;10.05;;
35394;SDS011;21500;45.308;9.488;2023-06-22T03:02:02;15.98;;;9.90;;
35394;SDS011;21500;45.308;9.488;2023-06-22T03:08:33;13.07;;;11.63;;
35394;SDS011;21500;45.308;9.488;2023-06-22T03:11:05;13.40;;;10.88;;
35394;SDS011;21500;45.308;9.488;2023-06-22T03:13:35;17.27;;;13.15;;
35394;SDS011;21500;45.308;9.488;2023-06-22T03:16:09;15.27;;;12.48;;
35394;SDS011;21500;45.308;9.488;2023-06-22T03:23:10;15.38;;;13.55;;
35394;SDS011;21500;45.308;9.488;2023-06-22T03:25:56;15.15;;;13.55;;
35394;SDS011;21500;45.308;9.488;2023-06-22T03:28:40;21.00;;;14.65;;
35394;SDS011;21500;45.308;9.488;2023-06-22T03:31:10;13.85;;;12.45;;
35394;SDS011;21500;45.308;9.488;2023-06-22T03:33:49;19.42;;;13.20;;
35394;SDS011;21500;45.308;9.488;2023-06-22T03:36:25;16.85;;;13.38;;
35394;SDS011;21500;45.308;9.488;2023-06-22T03:39:01;17.15;;;13.65;;
35394;SDS011;21500;45.308;9.488;2023-06-22T03:41:29;16.02;;;13.15;;
35394;SDS011;21500;45.308;9.488;2023-06-22T03:44:11;15.25;;;13.50;;
35394;SDS011;21500;45.308;9.488;2023-06-22T03:46:43;17.85;;;14.20;;
35394;SDS011;21500;45.308;9.488;2023-06-22T03:49:19;14.70;;;12.27;;
35394;SDS011;21500;45.308;9.488;2023-06-22T03:52:00;16.30;;;11.63;;
35394;SDS011;21500;45.308;9.488;2023-06-22T03:54:57;15.88;;;11.30;;
35394;SDS011;21500;45.308;9.488;2023-06-22T03:57:28;14.25;;;12.75;;
35394;SDS011;21500;45.308;9.488;2023-06-22T04:00:17;15.52;;;13.18;;
35394;SDS011;21500;45.308;9.488;2023-06-22T04:03:55;14.85;;;11.63;;
35394;SDS011;21500;45.308;9.488;2023-06-22T04:06:46;14.98;;;11.93;;
35394;SDS011;21500;45.308;9.488;2023-06-22T04:09:28;14.88;;;13.50;;
35394;SDS011;21500;45.308;9.488;2023-06-22T04:13:25;15.63;;;12.60;;
35394;SDS011;21500;45.308;9.488;2023-06-22T04:23:11;16.35;;;13.05;;
35394;SDS011;21500;45.308;9.488;2023-06-22T04:25:37;15.57;;;13.65;;
35394;SDS011;21500;45.308;9.488;2023-06-22T04:28:10;20.00;;;14.30;;
35394;SDS011;21500;45.308;9.488;2023-06-22T04:38:43;13.63;;;12.27;;
35394;SDS011;21500;45.308;9.488;2023-06-22T04:41:37;14.43;;;12.93;;
35394;SDS011;21500;45.308;9.488;2023-06-22T04:44:12;18.27;;;12.90;;
35394;SDS011;21500;45.308;9.488;2023-06-22T04:46:52;15.75;;;13.57;;
35394;SDS011;21500;45.308;9.488;2023-06-22T05:00:12;16.15;;;12.65;;
35394;SDS011;21500;45.308;9.488;2023-06-22T05:03:02;17.00;;;13.43;;
35394;SDS011;21500;45.308;9.488;2023-06-22T05:05:40;16.77;;;11.00;;
35394;SDS011;21500;45.308;9.488;2023-06-22T05:10:58;14.25;;;12.30;;
35394;SDS011;21500;45.308;9.488;2023-06-22T05:13:27;17.33;;;11.48;;
35394;SDS011;21500;45.308;9.488;2023-06-22T05:15:56;19.20;;;12.40;;
35394;SDS011;21500;45.308;9.488;2023-06-22T05:18:31;14.07;;;11.57;;
35394;SDS011;21500;45.308;9.488;2023-06-22T05:21:02;18.77;;;12.20;;
35394;SDS011;21500;45.308;9.488;2023-06-22T05:23:28;15.68;;;13.00;;
35394;SDS011;21500;45.308;9.488;2023-06-22T05:26:00;16.23;;;12.57;;
35394;SDS011;21500;45.308;9.488;2023-06-22T05:28:45;13.65;;;12.18;;
35394;SDS011;21500;45.308;9.488;2023-06-22T05:31:23;17.38;;;14.65;;
35394;SDS011;21500;45.308;9.488;2023-06-22T05:33:54;20.70;;;14.52;;
35394;SDS011;21500;45.308;9.488;2023-06-22T05:39:12;15.38;;;13.77;;
35394;SDS011;21500;45.308;9.488;2023-06-22T05:41:50;22.65;;;17.75;;
35394;SDS011;21500;45.308;9.488;2023-06-22T05:44:17;17.77;;;15.35;;
35394;SDS011;21500;45.308;9.488;2023-06-22T05:46:45;19.02;;;15.63;;
35394;SDS011;21500;45.308;9.488;2023-06-22T05:49:16;20.35;;;15.55;;
35394;SDS011;21500;45.308;9.488;2023-06-22T05:51:47;23.13;;;16.80;;
35394;SDS011;21500;45.308;9.488;2023-06-22T05:54:14;22.25;;;16.67;;
35394;SDS011;21500;45.308;9.488;2023-06-22T05:56:52;21.73;;;17.13;;
35394;SDS011;21500;45.308;9.488;2023-06-22T05:59:27;20.63;;;15.45;;
35394;SDS011;21500;45.308;9.488;2023-06-22T06:01:57;21.98;;;13.50;;
35394;SDS011;21500;45.308;9.488;2023-06-22T06:04:47;26.00;;;15.70;;
35394;SDS011;21500;45.308;9.488;2023-06-22T06:07:19;28.42;;;14.43;;
35394;SDS011;21500;45.308;9.488;2023-06-22T06:09:47;22.10;;;15.50;;
35394;SDS011;21500;45.308;9.488;2023-06-22T06:12:13;19.67;;;14.23;;
35394;SDS011;21500;45.308;9.488;2023-06-22T06:14:39;22.92;;;13.90;;
35394;SDS011;21500;45.308;9.488;2023-06-22T06:17:11;29.45;;;14.63;;
35394;SDS011;21500;45.308;9.488;2023-06-22T06:19:38;28.08;;;14.60;;
35394;SDS011;21500;45.308;9.488;2023-06-22T06:22:05;25.65;;;15.57;;
35394;SDS011;21500;45.308;9.488;2023-06-22T06:24:34;22.65;;;14.88;;
35394;SDS011;21500;45.308;9.488;2023-06-22T06:27:02;19.17;;;14.15;;
35394;SDS011;21500;45.308;9.488;2023-06-22T06:29:30;18.30;;;14.63;;
35394;SDS011;21500;45.308;9.488;2023-06-22T06:31:58;18.80;;;14.73;;
35394;SDS011;21500;45.308;9.488;2023-06-22T06:34:31;25.85;;;16.63;;
35394;SDS011;21500;45.308;9.488;2023-06-22T06:37:17;21.17;;;15.80;;
35394;SDS011;21500;45.308;9.488;2023-06-22T06:39:44;18.65;;;13.20;;
35394;SDS011;21500;45.308;9.488;2023-06-22T06:42:13;22.38;;;13.93;;
35394;SDS011;21500;45.308;9.488;2023-06-22T06:44:40;26.13;;;14.85;;
35394;SDS011;21500;45.308;9.488;2023-06-22T06:47:10;22.38;;;14.95;;
35394;SDS011;21500;45.308;9.488;2023-06-22T06:49:38;36.88;;;16.20;;
35394;SDS011;21500;45.308;9.488;2023-06-22T06:52:06;27.20;;;16.52;;
35394;SDS011;21500;45.308;9.488;2023-06-22T06:54:40;23.17;;;18.88;;
35394;SDS011;21500;45.308;9.488;2023-06-22T06:57:09;25.08;;;18.88;;
35394;SDS011;21500;45.308;9.488;2023-06-22T06:59:39;26.00;;;17.92;;
35394;SDS011;21500;45.308;9.488;2023-06-22T07:02:14;28.65;;;21.02;;
35394;SDS011;21500;45.308;9.488;2023-06-22T07:05:16;21.13;;;18.08;;
35394;SDS011;21500;45.308;9.488;2023-06-22T07:07:42;22.23;;;17.10;;
35394;SDS011;21500;45.308;9.488;2023-06-22T07:10:10;20.90;;;16.60;;
35394;SDS011;21500;45.308;9.488;2023-06-22T07:15:09;23.58;;;17.15;;
35394;SDS011;21500;45.308;9.488;2023-06-22T07:17:38;23.53;;;18.33;;
35394;SDS011;21500;45.308;9.488;2023-06-22T07:20:08;27.63;;;19.23;;
35394;SDS011;21500;45.308;9.488;2023-06-22T07:25:20;24.60;;;18.58;;
35394;SDS011;21500;45.308;9.488;2023-06-22T07:27:58;33.53;;;19.17;;
35394;SDS011;21500;45.308;9.488;2023-06-22T07:30:29;20.58;;;15.75;;
35394;SDS011;21500;45.308;9.488;2023-06-22T07:32:58;21.50;;;17.02;;
35394;SDS011;21500;45.308;9.488;2023-06-22T07:35:29;25.45;;;17.08;;
35394;SDS011;21500;45.308;9.488;2023-06-22T07:38:00;23.30;;;18.27;;
35394;SDS011;21500;45.308;9.488;2023-06-22T07:40:30;25.30;;;18.15;;
35394;SDS011;21500;45.308;9.488;2023-06-22T07:42:56;28.47;;;18.70;;
35394;SDS011;21500;45.308;9.488;2023-06-22T07:45:23;19.30;;;16.83;;
35394;SDS011;21500;45.308;9.488;2023-06-22T07:47:48;26.95;;;16.15;;
35394;SDS011;21500;45.308;9.488;2023-06-22T07:50:14;29.52;;;20.55;;
35394;SDS011;21500;45.308;9.488;2023-06-22T07:52:40;25.30;;;19.48;;
35394;SDS011;21500;45.308;9.488;2023-06-22T07:55:06;27.88;;;19.42;;
35394;SDS011;21500;45.308;9.488;2023-06-22T07:57:32;23.48;;;20.85;;
35394;SDS011;21500;45.308;9.488;2023-06-22T08:00:05;28.55;;;19.73;;
35394;SDS011;21500;45.308;9.488;2023-06-22T08:02:42;27.17;;;17.75;;
35394;SDS011;21500;45.308;9.488;2023-06-22T08:05:10;24.95;;;19.42;;
35394;SDS011;21500;45.308;9.488;2023-06-22T08:18:39;23.45;;;18.95;;
35394;SDS011;21500;45.308;9.488;2023-06-22T08:21:34;26.13;;;21.67;;
35394;SDS011;21500;45.308;9.488;2023-06-22T10:26:22;19.38;;;11.07;;
35394;SDS011;21500;45.308;9.488;2023-06-22T10:29:23;16.27;;;10.68;;
35394;SDS011;21500;45.308;9.488;2023-06-22T10:43:34;16.08;;;12.65;;
35394;SDS011;21500;45.308;9.488;2023-06-22T10:47:00;16.15;;;11.00;;
35394;SDS011;21500;45.308;9.488;2023-06-22T10:50:25;17.92;;;10.40;;
35394;SDS011;21500;45.308;9.488;2023-06-22T10:52:54;18.70;;;12.55;;
35394;SDS011;21500;45.308;9.488;2023-06-22T10:55:23;16.05;;;11.07;;
35394;SDS011;21500;45.308;9.488;2023-06-22T10:57:54;15.20;;;11.02;;
35394;SDS011;21500;45.308;9.488;2023-06-22T11:01:25;18.80;;;12.93;;
35394;SDS011;21500;45.308;9.488;2023-06-22T11:03:54;18.23;;;13.75;;
35394;SDS011;21500;45.308;9.488;2023-06-22T11:06:21;15.40;;;12.02;;
35394;SDS011;21500;45.308;9.488;2023-06-22T11:09:40;20.45;;;12.15;;
35394;SDS011;21500;45.308;9.488;2023-06-22T11:12:47;13.55;;;11.20;;
35394;SDS011;21500;45.308;9.488;2023-06-22T11:15:43;16.52;;;10.57;;
35394;SDS011;21500;45.308;9.488;2023-06-22T11:18:16;15.90;;;10.07;;
35394;SDS011;21500;45.308;9.488;2023-06-22T11:21:04;17.60;;;9.52;;
35394;SDS011;21500;45.308;9.488;2023-06-22T11:23:34;10.60;;;7.95;;
35394;SDS011;21500;45.308;9.488;2023-06-22T11:26:31;16.52;;;10.07;;
35394;SDS011;21500;45.308;9.488;2023-06-22T11:29:05;14.27;;;8.00;;
35394;SDS011;21500;45.308;9.488;2023-06-22T11:32:22;10.82;;;6.57;;
35394;SDS011;21500;45.308;9.488;2023-06-22T11:35:30;11.15;;;6.93;;
35394;SDS011;21500;45.308;9.488;2023-06-22T11:38:09;11.63;;;7.43;;
35394;SDS011;21500;45.308;9.488;2023-06-22T11:40:55;16.70;;;8.45;;
35394;SDS011;21500;45.308;9.488;2023-06-22T11:47:42;9.32;;;6.38;;
35394;SDS011;21500;45.308;9.488;2023-06-22T11:50:44;11.27;;;6.82;;
35394;SDS011;21500;45.308;9.488;2023-06-22T12:49:29;7.55;;;6.40;;
35394;SDS011;21500;45.308;9.488;2023-06-22T12:53:13;12.00;;;7.15;;
35394;SDS011;21500;45.308;9.488;2023-06-22T12:56:12;13.10;;;6.93;;
35394;SDS011;21500;45.308;9.488;2023-06-22T12:59:09;8.40;;;6.30;;
35394;SDS011;21500;45.308;9.488;2023-06-22T13:05:45;10.00;;;6.50;;
35394;SDS011;21500;45.308;9.488;2023-06-22T13:08:11;10.57;;;6.95;;
35394;SDS011;21500;45.308;9.488;2023-06-22T13:10:40;11.98;;;6.22;;
35394;SDS011;21500;45.308;9.488;2023-06-22T13:26:53;9.20;;;5.93;;
35394;SDS011;21500;45.308;9.488;2023-06-22T13:30:44;8.35;;;6.10;;
35394;SDS011;21500;45.308;9.488;2023-06-22T13:34:05;10.40;;;6.28;;
35394;SDS011;21500;45.308;9.488;2023-06-22T13:37:14;10.52;;;6.53;;
35394;SDS011;21500;45.308;9.488;2023-06-22T13:40:29;10.40;;;7.18;;
35394;SDS011;21500;45.308;9.488;2023-06-22T13:43:16;10.57;;;6.13;;
35394;SDS011;21500;45.308;9.488;2023-06-22T13:45:50;7.05;;;6.03;;
35394;SDS011;21500;45.308;9.488;2023-06-22T13:49:00;6.63;;;5.85;;
35394;SDS011;21500;45.308;9.488;2023-06-22T13:51:31;10.13;;;6.60;;
35394;SDS011;21500;45.308;9.488;2023-06-22T13:54:03;11.48;;;6.38;;
35394;SDS011;21500;45.308;9.488;2023-06-22T13:56:32;10.45;;;6.32;;
35394;SDS011;21500;45.308;9.488;2023-06-22T14:02:45;11.32;;;6.03;;
35394;SDS011;21500;45.308;9.488;2023-06-22T14:05:11;11.52;;;7.22;;
35394;SDS011;21500;45.308;9.488;2023-06-22T14:13:07;7.88;;;5.65;;
35394;SDS011;21500;45.308;9.488;2023-06-22T14:15:36;9.88;;;5.45;;
35394;SDS011;21500;45.308;9.488;2023-06-22T14:18:48;9.00;;;6.00;;
35394;SDS011;21500;45.308;9.488;2023-06-22T14:24:53;6.82;;;5.40;;
35394;SDS011;21500;45.308;9.488;2023-06-22T14:28:39;17.13;;;6.60;;
35394;SDS011;21500;45.308;9.488;2023-06-22T14:31:23;10.93;;;5.50;;
35394;SDS011;21500;45.308;9.488;2023-06-22T14:33:55;10.00;;;7.07;;
35394;SDS011;21500;45.308;9.488;2023-06-22T14:36:24;10.50;;;6.15;;
35394;SDS011;21500;45.308;9.488;2023-06-22T14:39:01;10.20;;;6.20;;
35394;SDS011;21500;45.308;9.488;2023-06-22T14:41:32;10.48;;;7.18;;
35394;SDS011;21500;45.308;9.488;2023-06-22T14:44:06;8.35;;;6.25;;
35394;SDS011;21500;45.308;9.488;2023-06-22T14:46:36;8.27;;;5.95;;
35394;SDS011;21500;45.308;9.488;2023-06-22T14:49:13;10.38;;;6.10;;
35394;SDS011;21500;45.308;9.488;2023-06-22T14:51:45;10.32;;;6.05;;
35394;SDS011;21500;45.308;9.488;2023-06-22T14:54:19;11.18;;;6.30;;
35394;SDS011;21500;45.308;9.488;2023-06-22T14:56:45;14.95;;;7.43;;
35394;SDS011;21500;45.308;9.488;2023-06-22T15:01:44;9.75;;;5.10;;
35394;SDS011;21500;45.308;9.488;2023-06-22T15:06:41;8.32;;;5.57;;
35394;SDS011;21500;45.308;9.488;2023-06-22T16:49:20;11.05;;;5.80;;
35394;SDS011;21500;45.308;9.488;2023-06-22T16:51:56;9.15;;;6.35;;
35394;SDS011;21500;45.308;9.488;2023-06-22T16:54:28;9.13;;;7.13;;
35394;SDS011;21500;45.308;9.488;2023-06-22T16:57:04;7.10;;;6.32;;
35394;SDS011;21500;45.308;9.488;2023-06-22T16:59:36;15.15;;;6.30;;
35394;SDS011;21500;45.308;9.488;2023-06-22T17:02:50;16.80;;;6.60;;
35394;SDS011;21500;45.308;9.488;2023-06-22T17:05:56;10.73;;;6.45;;
35394;SDS011;21500;45.308;9.488;2023-06-22T17:08:54;10.27;;;5.88;;
35394;SDS011;21500;45.308;9.488;2023-06-22T17:11:52;10.50;;;6.22;;
35394;SDS011;21500;45.308;9.488;2023-06-22T17:14:44;8.75;;;6.40;;
35394;SDS011;21500;45.308;9.488;2023-06-22T17:17:26;10.77;;;5.85;;
35394;SDS011;21500;45.308;9.488;2023-06-22T17:20:21;6.85;;;5.45;;
35394;SDS011;21500;45.308;9.488;2023-06-22T17:23:08;8.10;;;6.88;;
35394;SDS011;21500;45.308;9.488;2023-06-22T17:26:26;8.38;;;6.53;;
35394;SDS011;21500;45.308;9.488;2023-06-22T17:29:04;8.00;;;6.60;;
35394;SDS011;21500;45.308;9.488;2023-06-22T17:31:42;9.73;;;5.75;;
35394;SDS011;21500;45.308;9.488;2023-06-22T17:34:26;10.30;;;6.18;;
35394;SDS011;21500;45.308;9.488;2023-06-22T17:37:02;10.68;;;6.10;;
35394;SDS011;21500;45.308;9.488;2023-06-22T17:39:43;9.40;;;5.68;;
35394;SDS011;21500;45.308;9.488;2023-06-22T17:42:30;9.73;;;6.85;;
35394;SDS011;21500;45.308;9.488;2023-06-22T17:45:01;11.20;;;6.95;;
35394;SDS011;21500;45.308;9.488;2023-06-22T17:47:39;12.98;;;7.10;;
35394;SDS011;21500;45.308;9.488;2023-06-22T17:55:10;8.90;;;5.68;;
35394;SDS011;21500;45.308;9.488;2023-06-22T18:01:28;14.13;;;7.05;;
35394;SDS011;21500;45.308;9.488;2023-06-22T18:04:05;11.82;;;5.82;;
35394;SDS011;21500;45.308;9.488;2023-06-22T18:09:06;13.67;;;6.83;;
35394;SDS011;21500;45.308;9.488;2023-06-22T18:11:50;10.90;;;6.20;;
35394;SDS011;21500;45.308;9.488;2023-06-22T18:30:31;12.75;;;6.72;;
35394;SDS011;21500;45.308;9.488;2023-06-22T18:37:44;10.05;;;6.10;;
35394;SDS011;21500;45.308;9.488;2023-06-22T18:44:43;10.60;;;6.35;;
35394;SDS011;21500;45.308;9.488;2023-06-22T18:47:29;11.18;;;6.30;;
35394;SDS011;21500;45.308;9.488;2023-06-22T18:50:13;8.95;;;6.40;;
35394;SDS011;21500;45.308;9.488;2023-06-22T18:53:17;11.07;;;6.78;;
35394;SDS011;21500;45.308;9.488;2023-06-22T18:56:14;12.68;;;6.80;;
35394;SDS011;21500;45.308;9.488;2023-06-22T19:15:52;10.27;;;7.50;;
35394;SDS011;21500;45.308;9.488;2023-06-22T19:18:46;11.57;;;8.63;;
35394;SDS011;21500;45.308;9.488;2023-06-22T19:21:57;9.10;;;8.20;;
35394;SDS011;21500;45.308;9.488;2023-06-22T19:24:47;15.10;;;9.05;;
35394;SDS011;21500;45.308;9.488;2023-06-22T19:28:23;13.35;;;8.32;;
35394;SDS011;21500;45.308;9.488;2023-06-22T19:40:22;12.85;;;9.35;;
35394;SDS011;21500;45.308;9.488;2023-06-22T19:42:52;14.85;;;10.25;;
35394;SDS011;21500;45.308;9.488;2023-06-22T19:45:28;11.73;;;7.72;;
35394;SDS011;21500;45.308;9.488;2023-06-22T19:48:02;13.85;;;9.82;;
35394;SDS011;21500;45.308;9.488;2023-06-22T19:50:34;9.02;;;8.10;;
35394;SDS011;21500;45.308;9.488;2023-06-22T19:53:13;12.00;;;8.77;;
35394;SDS011;21500;45.308;9.488;2023-06-22T19:55:42;14.32;;;9.27;;
35394;SDS011;21500;45.308;9.488;2023-06-22T19:58:39;11.50;;;8.38;;
35394;SDS011;21500;45.308;9.488;2023-06-22T20:01:23;9.85;;;7.65;;
35394;SDS011;21500;45.308;9.488;2023-06-22T20:03:54;11.82;;;8.45;;
35394;SDS011;21500;45.308;9.488;2023-06-22T20:07:41;15.02;;;9.55;;
35394;SDS011;21500;45.308;9.488;2023-06-22T20:10:19;9.90;;;8.88;;
35394;SDS011;21500;45.308;9.488;2023-06-22T20:13:25;12.73;;;8.43;;
35394;SDS011;21500;45.308;9.488;2023-06-22T20:16:07;14.48;;;8.88;;
35394;SDS011;21500;45.308;9.488;2023-06-22T20:19:42;13.93;;;8.63;;
35394;SDS011;21500;45.308;9.488;2023-06-22T20:26:29;9.63;;;8.15;;
35394;SDS011;21500;45.308;9.488;2023-06-22T20:29:34;14.93;;;8.88;;
35394;SDS011;21500;45.308;9.488;2023-06-22T20:37:04;14.35;;;9.25;;
35394;SDS011;21500;45.308;9.488;2023-06-22T20:39:31;15.80;;;9.25;;
35394;SDS011;21500;45.308;9.488;2023-06-22T20:42:01;13.73;;;10.35;;
35394;SDS011;21500;45.308;9.488;2023-06-22T20:44:29;14.73;;;10.35;;
35394;SDS011;21500;45.308;9.488;2023-06-22T20:46:58;13.60;;;9.63;;
35394;SDS011;21500;45.308;9.488;2023-06-22T20:49:25;15.05;;;10.65;;
35394;SDS011;21500;45.308;9.488;2023-06-22T20:51:52;13.80;;;10.55;;
35394;SDS011;21500;45.308;9.488;2023-06-22T20:58:08;16.42;;;11.13;;
35394;SDS011;21500;45.308;9.488;2023-06-22T21:00:59;16.77;;;10.18;;
35394;SDS011;21500;45.308;9.488;2023-06-22T21:04:18;14.10;;;11.73;;
35394;SDS011;21500;45.308;9.488;2023-06-22T21:10:08;16.02;;;11.07;;
35394;SDS011;21500;45.308;9.488;2023-06-22T21:12:44;23.88;;;12.27;;
35394;SDS011;21500;45.308;9.488;2023-06-22T21:28:37;20.55;;;11.15;;
35394;SDS011;21500;45.308;9.488;2023-06-22T21:32:31;17.83;;;12.32;;
35394;SDS011;21500;45.308;9.488;2023-06-22T21:36:20;15.57;;;11.85;;
35394;SDS011;21500;45.308;9.488;2023-06-22T21:39:01;11.65;;;9.23;;
35394;SDS011;21500;45.308;9.488;2023-06-22T21:41:37;16.05;;;11.38;;
35394;SDS011;21500;45.308;9.488;2023-06-22T21:45:34;17.30;;;11.60;;
35394;SDS011;21500;45.308;9.488;2023-06-22T21:52:35;18.55;;;11.32;;
35394;SDS011;21500;45.308;9.488;2023-06-22T21:55:32;21.48;;;12.55;;
35394;SDS011;21500;45.308;9.488;2023-06-22T22:01:58;18.70;;;13.90;;
35394;SDS011;21500;45.308;9.488;2023-06-22T22:27:01;23.73;;;15.18;;
35394;SDS011;21500;45.308;9.488;2023-06-22T22:29:44;20.17;;;14.95;;
35394;SDS011;21500;45.308;9.488;2023-06-22T22:32:28;19.25;;;12.77;;
35394;SDS011;21500;45.308;9.488;2023-06-22T22:41:25;16.98;;;9.77;;
35394;SDS011;21500;45.308;9.488;2023-06-22T22:43:55;15.45;;;9.07;;
35394;SDS011;21500;45.308;9.488;2023-06-22T22:46:22;10.05;;;8.05;;
35394;SDS011;21500;45.308;9.488;2023-06-22T22:48:48;19.52;;;8.70;;
35394;SDS011;21500;45.308;9.488;2023-06-22T22:51:14;14.40;;;7.93;;
35394;SDS011;21500;45.308;9.488;2023-06-22T22:53:40;10.40;;;7.43;;
35394;SDS011;21500;45.308;9.488;2023-06-22T22:56:13;9.10;;;7.82;;
35394;SDS011;21500;45.308;9.488;2023-06-22T22:58:39;11.45;;;8.07;;
35394;SDS011;21500;45.308;9.488;2023-06-22T23:01:05;9.52;;;7.65;;
35394;SDS011;21500;45.308;9.488;2023-06-22T23:03:32;10.95;;;6.78;;
35394;SDS011;21500;45.308;9.488;2023-06-22T23:05:58;10.70;;;7.05;;
35394;SDS011;21500;45.308;9.488;2023-06-22T23:08:25;12.07;;;6.35;;
35394;SDS011;21500;45.308;9.488;2023-06-22T23:10:51;8.52;;;5.93;;
35394;SDS011;21500;45.308;9.488;2023-06-22T23:13:18;8.90;;;5.55;;
35394;SDS011;21500;45.308;9.488;2023-06-22T23:15:47;7.70;;;5.35;;
35394;SDS011;21500;45.308;9.488;2023-06-22T23:18:16;9.05;;;5.40;;
35394;SDS011;21500;45.308;9.488;2023-06-22T23:20:43;7.28;;;5.03;;
35394;SDS011;21500;45.308;9.488;2023-06-22T23:23:09;14.20;;;5.28;;
35394;SDS011;21500;45.308;9.488;2023-06-22T23:25:36;9.75;;;5.20;;
35394;SDS011;21500;45.308;9.488;2023-06-22T23:28:04;8.45;;;5.53;;
35394;SDS011;21500;45.308;9.488;2023-06-22T23:30:31;5.25;;;4.75;;
35394;SDS011;21500;45.308;9.488;2023-06-22T23:33:00;14.65;;;4.75;;
35394;SDS011;21500;45.308;9.488;2023-06-22T23:35:31;9.93;;;4.75;;
35394;SDS011;21500;45.308;9.488;2023-06-22T23:37:57;12.32;;;4.80;;
35394;SDS011;21500;45.308;9.488;2023-06-22T23:40:23;7.72;;;4.68;;
35394;SDS011;21500;45.308;9.488;2023-06-22T23:42:51;7.55;;;4.25;;
35394;SDS011;21500;45.308;9.488;2023-06-22T23:45:20;10.35;;;4.60;;
35394;SDS011;21500;45.308;9.488;2023-06-22T23:47:49;6.82;;;4.25;;
35394;SDS011;21500;45.308;9.488;2023-06-22T23:50:16;12.80;;;5.25;;
35394;SDS011;21500;45.308;9.488;2023-06-22T23:52:43;9.20;;;4.95;;
35394;SDS011;21500;45.308;9.488;2023-06-22T23:55:14;7.03;;;3.73;;
35394;SDS011;21500;45.308;9.488;2023-06-22T23:57:41;7.70;;;4.40;;
